sensor_id;sensor_type;location;lat;lon;timestamp;P1;durP1;ratioP1;P2;durP2;ratioP2
51266;SDS011;37338;47.426;19.204;2023-08-06T00:00:21;15.55;;;11.27;;
51266;SDS011;37338;47.426;19.204;2023-08-06T00:02:47;13.45;;;11.23;;
51266;SDS011;37338;47.426;19.204;2023-08-06T00:05:13;14.63;;;11.70;;
51266;SDS011;37338;47.426;19.204;2023-08-06T00:07:42;14.35;;;11.48;;
51266;SDS011;37338;47.426;19.204;2023-08-06T00:10:08;19.00;;;11.48;;
51266;SDS011;37338;47.426;19.204;2023-08-06T00:12:34;18.27;;;12.57;;
51266;SDS011;37338;47.426;19.204;2023-08-06T00:14:59;17.85;;;12.88;;
51266;SDS011;37338;47.426;19.204;2023-08-06T00:17:24;16.55;;;12.88;;
51266;SDS011;37338;47.426;19.204;2023-08-06T00:19:50;20.65;;;13.43;;
51266;SDS011;37338;47.426;19.204;2023-08-06T00:22:15;16.13;;;12.95;;
51266;SDS011;37338;47.426;19.204;2023-08-06T00:24:41;15.77;;;13.20;;
51266;SDS011;37338;47.426;19.204;2023-08-06T00:27:06;17.80;;;13.55;;
51266;SDS011;37338;47.426;19.204;2023-08-06T00:29:31;17.23;;;13.38;;
51266;SDS011;37338;47.426;19.204;2023-08-06T00:31:57;16.25;;;13.63;;
51266;SDS011;37338;47.426;19.204;2023-08-06T00:34:22;19.77;;;13.38;;
51266;SDS011;37338;47.426;19.204;2023-08-06T00:36:47;19.95;;;13.93;;
51266;SDS011;37338;47.426;19.204;2023-08-06T00:39:13;15.38;;;13.55;;
51266;SDS011;37338;47.426;19.204;2023-08-06T00:41:38;18.52;;;12.13;;
51266;SDS011;37338;47.426;19.204;2023-08-06T00:44:04;23.15;;;12.02;;
51266;SDS011;37338;47.426;19.204;2023-08-06T00:46:29;17.08;;;12.38;;
51266;SDS011;37338;47.426;19.204;2023-08-06T00:48:55;12.13;;;10.38;;
51266;SDS011;37338;47.426;19.204;2023-08-06T00:51:20;12.80;;;11.02;;
51266;SDS011;37338;47.426;19.204;2023-08-06T00:53:46;18.00;;;12.10;;
51266;SDS011;37338;47.426;19.204;2023-08-06T00:56:12;11.15;;;10.00;;
51266;SDS011;37338;47.426;19.204;2023-08-06T00:58:38;14.68;;;10.52;;
51266;SDS011;37338;47.426;19.204;2023-08-06T01:01:04;12.10;;;10.82;;
51266;SDS011;37338;47.426;19.204;2023-08-06T01:03:29;12.00;;;10.32;;
51266;SDS011;37338;47.426;19.204;2023-08-06T01:05:55;10.77;;;9.77;;
51266;SDS011;37338;47.426;19.204;2023-08-06T01:13:54;12.85;;;10.32;;
51266;SDS011;37338;47.426;19.204;2023-08-06T01:16:22;14.20;;;10.02;;
51266;SDS011;37338;47.426;19.204;2023-08-06T01:18:49;11.63;;;10.43;;
51266;SDS011;37338;47.426;19.204;2023-08-06T01:21:17;11.70;;;10.48;;
51266;SDS011;37338;47.426;19.204;2023-08-06T01:23:43;15.07;;;12.90;;
51266;SDS011;37338;47.426;19.204;2023-08-06T01:28:44;13.00;;;11.65;;
51266;SDS011;37338;47.426;19.204;2023-08-06T01:31:31;12.60;;;11.30;;
51266;SDS011;37338;47.426;19.204;2023-08-06T01:33:59;13.45;;;10.73;;
51266;SDS011;37338;47.426;19.204;2023-08-06T01:36:26;12.77;;;10.50;;
51266;SDS011;37338;47.426;19.204;2023-08-06T01:38:55;11.90;;;10.07;;
51266;SDS011;37338;47.426;19.204;2023-08-06T01:41:20;11.95;;;9.63;;
51266;SDS011;37338;47.426;19.204;2023-08-06T01:43:45;12.93;;;9.80;;
51266;SDS011;37338;47.426;19.204;2023-08-06T01:46:11;11.48;;;9.13;;
51266;SDS011;37338;47.426;19.204;2023-08-06T01:48:36;9.23;;;8.20;;
51266;SDS011;37338;47.426;19.204;2023-08-06T01:51:05;10.25;;;8.68;;
51266;SDS011;37338;47.426;19.204;2023-08-06T01:53:31;9.32;;;8.40;;
51266;SDS011;37338;47.426;19.204;2023-08-06T01:55:57;10.48;;;9.38;;
51266;SDS011;37338;47.426;19.204;2023-08-06T01:58:22;12.23;;;8.82;;
51266;SDS011;37338;47.426;19.204;2023-08-06T02:00:48;9.95;;;8.75;;
51266;SDS011;37338;47.426;19.204;2023-08-06T02:03:13;11.75;;;8.52;;
51266;SDS011;37338;47.426;19.204;2023-08-06T02:05:38;10.35;;;7.90;;
51266;SDS011;37338;47.426;19.204;2023-08-06T02:08:05;14.48;;;8.32;;
51266;SDS011;37338;47.426;19.204;2023-08-06T02:10:30;10.50;;;8.45;;
51266;SDS011;37338;47.426;19.204;2023-08-06T02:12:55;9.98;;;8.05;;
51266;SDS011;37338;47.426;19.204;2023-08-06T02:15:21;9.80;;;8.18;;
51266;SDS011;37338;47.426;19.204;2023-08-06T02:17:46;8.07;;;7.28;;
51266;SDS011;37338;47.426;19.204;2023-08-06T02:20:11;8.68;;;7.78;;
51266;SDS011;37338;47.426;19.204;2023-08-06T02:22:37;11.10;;;7.90;;
51266;SDS011;37338;47.426;19.204;2023-08-06T02:25:02;8.25;;;7.45;;
51266;SDS011;37338;47.426;19.204;2023-08-06T02:27:28;10.63;;;8.10;;
51266;SDS011;37338;47.426;19.204;2023-08-06T02:29:53;10.10;;;8.43;;
51266;SDS011;37338;47.426;19.204;2023-08-06T02:32:18;8.95;;;7.93;;
51266;SDS011;37338;47.426;19.204;2023-08-06T02:34:44;9.30;;;7.85;;
51266;SDS011;37338;47.426;19.204;2023-08-06T02:37:09;10.68;;;8.00;;
51266;SDS011;37338;47.426;19.204;2023-08-06T02:39:35;8.40;;;7.57;;
51266;SDS011;37338;47.426;19.204;2023-08-06T02:42:04;11.55;;;7.50;;
51266;SDS011;37338;47.426;19.204;2023-08-06T02:44:30;8.60;;;7.70;;
51266;SDS011;37338;47.426;19.204;2023-08-06T02:46:55;9.38;;;8.38;;
51266;SDS011;37338;47.426;19.204;2023-08-06T02:49:21;7.13;;;6.43;;
51266;SDS011;37338;47.426;19.204;2023-08-06T02:51:46;8.77;;;7.65;;
51266;SDS011;37338;47.426;19.204;2023-08-06T02:54:12;8.43;;;7.60;;
51266;SDS011;37338;47.426;19.204;2023-08-06T02:56:37;9.38;;;8.23;;
51266;SDS011;37338;47.426;19.204;2023-08-06T02:59:03;10.55;;;8.27;;
51266;SDS011;37338;47.426;19.204;2023-08-06T03:01:28;9.27;;;8.30;;
51266;SDS011;37338;47.426;19.204;2023-08-06T03:03:54;9.27;;;7.95;;
51266;SDS011;37338;47.426;19.204;2023-08-06T03:06:19;11.70;;;8.40;;
51266;SDS011;37338;47.426;19.204;2023-08-06T03:08:44;9.95;;;7.88;;
51266;SDS011;37338;47.426;19.204;2023-08-06T03:11:10;12.93;;;8.30;;
51266;SDS011;37338;47.426;19.204;2023-08-06T03:13:35;11.32;;;8.23;;
51266;SDS011;37338;47.426;19.204;2023-08-06T03:16:00;10.55;;;8.38;;
51266;SDS011;37338;47.426;19.204;2023-08-06T03:18:26;15.75;;;9.80;;
51266;SDS011;37338;47.426;19.204;2023-08-06T03:20:52;10.77;;;8.60;;
51266;SDS011;37338;47.426;19.204;2023-08-06T03:23:17;10.82;;;9.40;;
51266;SDS011;37338;47.426;19.204;2023-08-06T03:25:43;14.45;;;9.30;;
51266;SDS011;37338;47.426;19.204;2023-08-06T03:28:09;11.23;;;7.95;;
51266;SDS011;37338;47.426;19.204;2023-08-06T03:30:34;10.07;;;8.32;;
51266;SDS011;37338;47.426;19.204;2023-08-06T03:32:59;12.25;;;7.90;;
51266;SDS011;37338;47.426;19.204;2023-08-06T03:35:25;8.65;;;7.10;;
51266;SDS011;37338;47.426;19.204;2023-08-06T03:37:50;9.48;;;7.63;;
51266;SDS011;37338;47.426;19.204;2023-08-06T03:40:15;8.18;;;7.38;;
51266;SDS011;37338;47.426;19.204;2023-08-06T03:42:41;7.32;;;6.63;;
51266;SDS011;37338;47.426;19.204;2023-08-06T03:45:06;7.32;;;6.18;;
51266;SDS011;37338;47.426;19.204;2023-08-06T03:47:32;10.45;;;6.53;;
51266;SDS011;37338;47.426;19.204;2023-08-06T03:49:58;9.75;;;6.72;;
51266;SDS011;37338;47.426;19.204;2023-08-06T03:52:23;8.02;;;6.43;;
51266;SDS011;37338;47.426;19.204;2023-08-06T03:54:48;6.97;;;6.25;;
51266;SDS011;37338;47.426;19.204;2023-08-06T03:57:14;10.88;;;6.40;;
51266;SDS011;37338;47.426;19.204;2023-08-06T03:59:39;6.35;;;5.75;;
51266;SDS011;37338;47.426;19.204;2023-08-06T04:02:04;10.25;;;6.63;;
51266;SDS011;37338;47.426;19.204;2023-08-06T04:04:30;11.13;;;7.03;;
51266;SDS011;37338;47.426;19.204;2023-08-06T04:06:55;8.27;;;6.32;;
51266;SDS011;37338;47.426;19.204;2023-08-06T04:09:20;7.03;;;6.28;;
51266;SDS011;37338;47.426;19.204;2023-08-06T04:11:46;7.40;;;5.70;;
51266;SDS011;37338;47.426;19.204;2023-08-06T04:14:11;6.05;;;4.90;;
51266;SDS011;37338;47.426;19.204;2023-08-06T04:16:36;7.72;;;5.10;;
51266;SDS011;37338;47.426;19.204;2023-08-06T04:19:02;7.97;;;5.13;;
51266;SDS011;37338;47.426;19.204;2023-08-06T04:21:27;5.55;;;4.82;;
51266;SDS011;37338;47.426;19.204;2023-08-06T04:23:53;5.60;;;4.57;;
51266;SDS011;37338;47.426;19.204;2023-08-06T04:26:18;5.13;;;4.63;;
51266;SDS011;37338;47.426;19.204;2023-08-06T04:28:43;4.88;;;4.47;;
51266;SDS011;37338;47.426;19.204;2023-08-06T04:31:09;6.70;;;4.50;;
51266;SDS011;37338;47.426;19.204;2023-08-06T04:33:34;5.65;;;4.22;;
51266;SDS011;37338;47.426;19.204;2023-08-06T04:36:00;7.57;;;4.22;;
51266;SDS011;37338;47.426;19.204;2023-08-06T04:38:25;4.88;;;4.47;;
51266;SDS011;37338;47.426;19.204;2023-08-06T04:40:51;4.35;;;3.95;;
51266;SDS011;37338;47.426;19.204;2023-08-06T04:43:17;4.85;;;4.30;;
51266;SDS011;37338;47.426;19.204;2023-08-06T04:45:52;7.05;;;4.55;;
51266;SDS011;37338;47.426;19.204;2023-08-06T04:48:18;11.55;;;4.90;;
51266;SDS011;37338;47.426;19.204;2023-08-06T04:50:44;7.05;;;5.32;;
51266;SDS011;37338;47.426;19.204;2023-08-06T04:53:10;10.27;;;5.72;;
51266;SDS011;37338;47.426;19.204;2023-08-06T04:55:36;5.63;;;5.07;;
51266;SDS011;37338;47.426;19.204;2023-08-06T04:58:01;9.30;;;5.75;;
51266;SDS011;37338;47.426;19.204;2023-08-06T05:00:27;6.10;;;5.50;;
51266;SDS011;37338;47.426;19.204;2023-08-06T05:02:52;6.28;;;4.95;;
51266;SDS011;37338;47.426;19.204;2023-08-06T05:05:18;4.18;;;3.65;;
51266;SDS011;37338;47.426;19.204;2023-08-06T05:07:43;4.78;;;3.50;;
51266;SDS011;37338;47.426;19.204;2023-08-06T05:10:08;4.85;;;2.85;;
51266;SDS011;37338;47.426;19.204;2023-08-06T05:12:34;3.78;;;2.97;;
51266;SDS011;37338;47.426;19.204;2023-08-06T05:14:59;6.13;;;2.65;;
51266;SDS011;37338;47.426;19.204;2023-08-06T05:17:25;5.50;;;1.60;;
51266;SDS011;37338;47.426;19.204;2023-08-06T05:19:50;3.63;;;2.10;;
51266;SDS011;37338;47.426;19.204;2023-08-06T05:22:15;4.43;;;2.17;;
51266;SDS011;37338;47.426;19.204;2023-08-06T05:24:41;3.10;;;1.80;;
51266;SDS011;37338;47.426;19.204;2023-08-06T05:27:06;3.13;;;1.92;;
51266;SDS011;37338;47.426;19.204;2023-08-06T05:29:32;5.00;;;2.22;;
51266;SDS011;37338;47.426;19.204;2023-08-06T05:31:57;4.90;;;2.58;;
51266;SDS011;37338;47.426;19.204;2023-08-06T05:34:23;3.33;;;2.30;;
51266;SDS011;37338;47.426;19.204;2023-08-06T05:36:48;2.97;;;2.10;;
51266;SDS011;37338;47.426;19.204;2023-08-06T05:39:13;4.97;;;1.88;;
51266;SDS011;37338;47.426;19.204;2023-08-06T05:41:39;4.00;;;2.08;;
51266;SDS011;37338;47.426;19.204;2023-08-06T05:44:04;5.32;;;1.70;;
51266;SDS011;37338;47.426;19.204;2023-08-06T05:46:29;8.20;;;2.13;;
51266;SDS011;37338;47.426;19.204;2023-08-06T05:48:55;3.95;;;1.65;;
51266;SDS011;37338;47.426;19.204;2023-08-06T05:51:20;1.75;;;1.65;;
51266;SDS011;37338;47.426;19.204;2023-08-06T05:53:45;1.35;;;0.90;;
51266;SDS011;37338;47.426;19.204;2023-08-06T05:56:12;2.25;;;1.13;;
51266;SDS011;37338;47.426;19.204;2023-08-06T05:58:37;6.68;;;1.08;;
51266;SDS011;37338;47.426;19.204;2023-08-06T06:01:02;1.50;;;0.63;;
51266;SDS011;37338;47.426;19.204;2023-08-06T06:03:28;2.58;;;0.32;;
51266;SDS011;37338;47.426;19.204;2023-08-06T06:05:53;2.38;;;0.38;;
51266;SDS011;37338;47.426;19.204;2023-08-06T06:08:19;3.40;;;0.30;;
51266;SDS011;37338;47.426;19.204;2023-08-06T06:10:44;1.67;;;0.30;;
51266;SDS011;37338;47.426;19.204;2023-08-06T06:13:09;2.10;;;0.20;;
51266;SDS011;37338;47.426;19.204;2023-08-06T06:15:35;3.88;;;0.20;;
51266;SDS011;37338;47.426;19.204;2023-08-06T06:18:00;2.75;;;0.20;;
51266;SDS011;37338;47.426;19.204;2023-08-06T06:20:25;0.10;;;0.10;;
51266;SDS011;37338;47.426;19.204;2023-08-06T06:22:51;0.90;;;0.10;;
51266;SDS011;37338;47.426;19.204;2023-08-06T06:25:16;0.52;;;0.20;;
51266;SDS011;37338;47.426;19.204;2023-08-06T06:27:41;1.88;;;0.50;;
51266;SDS011;37338;47.426;19.204;2023-08-06T06:30:07;4.53;;;0.20;;
51266;SDS011;37338;47.426;19.204;2023-08-06T06:32:33;0.25;;;0.10;;
51266;SDS011;37338;47.426;19.204;2023-08-06T06:34:59;1.02;;;0.10;;
51266;SDS011;37338;47.426;19.204;2023-08-06T06:37:24;2.20;;;0.50;;
51266;SDS011;37338;47.426;19.204;2023-08-06T06:39:50;0.10;;;0.10;;
51266;SDS011;37338;47.426;19.204;2023-08-06T06:42:15;1.80;;;0.10;;
51266;SDS011;37338;47.426;19.204;2023-08-06T06:44:41;0.90;;;0.10;;
51266;SDS011;37338;47.426;19.204;2023-08-06T06:47:06;0.10;;;0.10;;
51266;SDS011;37338;47.426;19.204;2023-08-06T06:49:32;1.00;;;0.10;;
51266;SDS011;37338;47.426;19.204;2023-08-06T06:51:57;0.10;;;0.10;;
51266;SDS011;37338;47.426;19.204;2023-08-06T06:54:23;1.15;;;0.43;;
51266;SDS011;37338;47.426;19.204;2023-08-06T06:56:48;0.10;;;0.10;;
51266;SDS011;37338;47.426;19.204;2023-08-06T06:59:13;1.27;;;0.10;;
51266;SDS011;37338;47.426;19.204;2023-08-06T07:01:39;0.20;;;0.10;;
51266;SDS011;37338;47.426;19.204;2023-08-06T07:04:04;3.10;;;0.10;;
51266;SDS011;37338;47.426;19.204;2023-08-06T07:06:30;0.28;;;0.10;;
51266;SDS011;37338;47.426;19.204;2023-08-06T07:08:56;0.10;;;0.10;;
51266;SDS011;37338;47.426;19.204;2023-08-06T07:11:21;0.17;;;0.10;;
51266;SDS011;37338;47.426;19.204;2023-08-06T07:13:47;1.77;;;0.10;;
51266;SDS011;37338;47.426;19.204;2023-08-06T07:16:12;0.20;;;0.10;;
51266;SDS011;37338;47.426;19.204;2023-08-06T07:18:37;0.15;;;0.10;;
51266;SDS011;37338;47.426;19.204;2023-08-06T07:21:03;1.52;;;0.10;;
51266;SDS011;37338;47.426;19.204;2023-08-06T07:23:28;0.82;;;0.08;;
51266;SDS011;37338;47.426;19.204;2023-08-06T07:25:54;1.35;;;0.10;;
51266;SDS011;37338;47.426;19.204;2023-08-06T07:28:19;1.20;;;0.10;;
51266;SDS011;37338;47.426;19.204;2023-08-06T07:30:44;0.13;;;0.13;;
51266;SDS011;37338;47.426;19.204;2023-08-06T07:33:10;0.28;;;0.10;;
51266;SDS011;37338;47.426;19.204;2023-08-06T07:35:36;0.65;;;0.10;;
51266;SDS011;37338;47.426;19.204;2023-08-06T07:38:02;1.42;;;0.10;;
51266;SDS011;37338;47.426;19.204;2023-08-06T07:40:27;0.10;;;0.10;;
51266;SDS011;37338;47.426;19.204;2023-08-06T07:42:53;0.10;;;0.10;;
51266;SDS011;37338;47.426;19.204;2023-08-06T07:45:19;0.20;;;0.10;;
51266;SDS011;37338;47.426;19.204;2023-08-06T07:47:44;0.38;;;0.10;;
51266;SDS011;37338;47.426;19.204;2023-08-06T07:50:10;0.93;;;0.10;;
51266;SDS011;37338;47.426;19.204;2023-08-06T07:52:35;0.17;;;0.10;;
51266;SDS011;37338;47.426;19.204;2023-08-06T07:55:01;3.22;;;0.10;;
51266;SDS011;37338;47.426;19.204;2023-08-06T07:57:30;0.20;;;0.10;;
51266;SDS011;37338;47.426;19.204;2023-08-06T07:59:56;0.03;;;0.03;;
51266;SDS011;37338;47.426;19.204;2023-08-06T08:02:21;0.63;;;0.10;;
51266;SDS011;37338;47.426;19.204;2023-08-06T08:04:46;0.40;;;0.10;;
51266;SDS011;37338;47.426;19.204;2023-08-06T08:07:12;4.95;;;0.10;;
51266;SDS011;37338;47.426;19.204;2023-08-06T08:09:38;0.32;;;0.00;;
51266;SDS011;37338;47.426;19.204;2023-08-06T08:12:03;2.17;;;0.10;;
51266;SDS011;37338;47.426;19.204;2023-08-06T08:14:29;0.05;;;0.05;;
51266;SDS011;37338;47.426;19.204;2023-08-06T08:17:00;1.58;;;0.10;;
51266;SDS011;37338;47.426;19.204;2023-08-06T08:19:26;0.52;;;0.10;;
51266;SDS011;37338;47.426;19.204;2023-08-06T08:21:51;1.55;;;0.10;;
51266;SDS011;37338;47.426;19.204;2023-08-06T08:24:16;0.38;;;0.20;;
51266;SDS011;37338;47.426;19.204;2023-08-06T08:26:44;0.43;;;0.10;;
51266;SDS011;37338;47.426;19.204;2023-08-06T08:29:10;0.43;;;0.10;;
51266;SDS011;37338;47.426;19.204;2023-08-06T08:31:35;0.20;;;0.03;;
51266;SDS011;37338;47.426;19.204;2023-08-06T08:34:04;0.00;;;0.00;;
51266;SDS011;37338;47.426;19.204;2023-08-06T08:36:30;0.15;;;0.10;;
51266;SDS011;37338;47.426;19.204;2023-08-06T08:38:55;1.15;;;0.30;;
51266;SDS011;37338;47.426;19.204;2023-08-06T08:41:21;2.10;;;0.10;;
51266;SDS011;37338;47.426;19.204;2023-08-06T08:43:47;0.75;;;0.10;;
51266;SDS011;37338;47.426;19.204;2023-08-06T08:46:15;0.38;;;0.10;;
51266;SDS011;37338;47.426;19.204;2023-08-06T08:48:40;0.03;;;0.03;;
51266;SDS011;37338;47.426;19.204;2023-08-06T08:51:06;0.10;;;0.10;;
51266;SDS011;37338;47.426;19.204;2023-08-06T08:53:31;0.10;;;0.10;;
51266;SDS011;37338;47.426;19.204;2023-08-06T08:55:57;0.75;;;0.10;;
51266;SDS011;37338;47.426;19.204;2023-08-06T08:58:23;0.30;;;0.20;;
51266;SDS011;37338;47.426;19.204;2023-08-06T09:00:48;1.25;;;0.10;;
51266;SDS011;37338;47.426;19.204;2023-08-06T09:03:15;0.68;;;0.10;;
51266;SDS011;37338;47.426;19.204;2023-08-06T09:05:43;1.55;;;0.08;;
51266;SDS011;37338;47.426;19.204;2023-08-06T09:08:10;0.32;;;0.10;;
51266;SDS011;37338;47.426;19.204;2023-08-06T09:10:37;0.10;;;0.10;;
51266;SDS011;37338;47.426;19.204;2023-08-06T09:13:04;0.85;;;0.10;;
51266;SDS011;37338;47.426;19.204;2023-08-06T09:15:31;0.55;;;0.10;;
51266;SDS011;37338;47.426;19.204;2023-08-06T09:17:57;0.35;;;0.03;;
51266;SDS011;37338;47.426;19.204;2023-08-06T09:20:22;0.55;;;0.10;;
51266;SDS011;37338;47.426;19.204;2023-08-06T09:22:47;0.65;;;0.10;;
51266;SDS011;37338;47.426;19.204;2023-08-06T09:25:23;2.28;;;0.10;;
51266;SDS011;37338;47.426;19.204;2023-08-06T09:27:50;0.25;;;0.10;;
51266;SDS011;37338;47.426;19.204;2023-08-06T09:30:32;0.80;;;0.10;;
51266;SDS011;37338;47.426;19.204;2023-08-06T09:32:58;0.10;;;0.10;;
51266;SDS011;37338;47.426;19.204;2023-08-06T09:35:24;0.10;;;0.10;;
51266;SDS011;37338;47.426;19.204;2023-08-06T09:37:50;0.10;;;0.00;;
51266;SDS011;37338;47.426;19.204;2023-08-06T09:40:37;0.03;;;0.03;;
51266;SDS011;37338;47.426;19.204;2023-08-06T09:43:01;0.20;;;0.10;;
51266;SDS011;37338;47.426;19.204;2023-08-06T09:45:30;0.55;;;0.10;;
51266;SDS011;37338;47.426;19.204;2023-08-06T09:48:03;1.05;;;0.10;;
51266;SDS011;37338;47.426;19.204;2023-08-06T09:50:30;0.03;;;0.03;;
51266;SDS011;37338;47.426;19.204;2023-08-06T09:53:01;2.08;;;0.10;;
51266;SDS011;37338;47.426;19.204;2023-08-06T09:55:28;5.07;;;0.10;;
51266;SDS011;37338;47.426;19.204;2023-08-06T09:57:53;0.55;;;0.10;;
51266;SDS011;37338;47.426;19.204;2023-08-06T10:00:19;0.20;;;0.10;;
51266;SDS011;37338;47.426;19.204;2023-08-06T10:02:45;1.38;;;0.10;;
51266;SDS011;37338;47.426;19.204;2023-08-06T10:05:11;0.25;;;0.10;;
51266;SDS011;37338;47.426;19.204;2023-08-06T10:07:36;0.22;;;0.15;;
51266;SDS011;37338;47.426;19.204;2023-08-06T10:10:04;2.05;;;0.10;;
51266;SDS011;37338;47.426;19.204;2023-08-06T10:12:32;0.20;;;0.10;;
51266;SDS011;37338;47.426;19.204;2023-08-06T10:14:59;0.30;;;0.10;;
51266;SDS011;37338;47.426;19.204;2023-08-06T10:17:27;0.10;;;0.10;;
51266;SDS011;37338;47.426;19.204;2023-08-06T10:19:53;0.10;;;0.10;;
51266;SDS011;37338;47.426;19.204;2023-08-06T10:22:21;0.30;;;0.10;;
51266;SDS011;37338;47.426;19.204;2023-08-06T10:24:50;6.43;;;0.75;;
51266;SDS011;37338;47.426;19.204;2023-08-06T10:27:20;0.10;;;0.10;;
51266;SDS011;37338;47.426;19.204;2023-08-06T10:32:46;0.30;;;0.10;;
51266;SDS011;37338;47.426;19.204;2023-08-06T10:38:12;0.30;;;0.10;;
51266;SDS011;37338;47.426;19.204;2023-08-06T10:40:40;1.13;;;0.10;;
51266;SDS011;37338;47.426;19.204;2023-08-06T10:43:11;0.10;;;0.10;;
51266;SDS011;37338;47.426;19.204;2023-08-06T10:46:00;0.52;;;0.10;;
51266;SDS011;37338;47.426;19.204;2023-08-06T10:48:48;2.28;;;0.10;;
51266;SDS011;37338;47.426;19.204;2023-08-06T10:51:13;0.17;;;0.10;;
51266;SDS011;37338;47.426;19.204;2023-08-06T10:53:43;3.00;;;0.13;;
51266;SDS011;37338;47.426;19.204;2023-08-06T10:56:14;2.75;;;0.52;;
51266;SDS011;37338;47.426;19.204;2023-08-06T10:58:40;0.88;;;0.20;;
51266;SDS011;37338;47.426;19.204;2023-08-06T11:01:05;0.20;;;0.10;;
51266;SDS011;37338;47.426;19.204;2023-08-06T11:03:31;0.10;;;0.10;;
51266;SDS011;37338;47.426;19.204;2023-08-06T11:05:57;1.90;;;0.10;;
51266;SDS011;37338;47.426;19.204;2023-08-06T11:08:24;0.10;;;0.10;;
51266;SDS011;37338;47.426;19.204;2023-08-06T11:10:50;1.08;;;0.20;;
51266;SDS011;37338;47.426;19.204;2023-08-06T11:13:18;0.10;;;0.10;;
51266;SDS011;37338;47.426;19.204;2023-08-06T11:15:45;0.10;;;0.10;;
51266;SDS011;37338;47.426;19.204;2023-08-06T11:18:10;0.65;;;0.17;;
51266;SDS011;37338;47.426;19.204;2023-08-06T11:20:36;0.85;;;0.20;;
51266;SDS011;37338;47.426;19.204;2023-08-06T11:23:02;0.52;;;0.10;;
51266;SDS011;37338;47.426;19.204;2023-08-06T11:25:27;0.50;;;0.10;;
51266;SDS011;37338;47.426;19.204;2023-08-06T11:27:54;0.30;;;0.20;;
51266;SDS011;37338;47.426;19.204;2023-08-06T11:30:19;0.10;;;0.10;;
51266;SDS011;37338;47.426;19.204;2023-08-06T11:32:45;0.22;;;0.10;;
51266;SDS011;37338;47.426;19.204;2023-08-06T11:35:12;0.10;;;0.10;;
51266;SDS011;37338;47.426;19.204;2023-08-06T11:37:38;0.10;;;0.10;;
51266;SDS011;37338;47.426;19.204;2023-08-06T11:40:07;1.27;;;0.10;;
51266;SDS011;37338;47.426;19.204;2023-08-06T11:42:33;0.10;;;0.10;;
51266;SDS011;37338;47.426;19.204;2023-08-06T11:44:59;3.33;;;0.10;;
51266;SDS011;37338;47.426;19.204;2023-08-06T11:47:27;0.25;;;0.20;;
51266;SDS011;37338;47.426;19.204;2023-08-06T11:49:53;0.57;;;0.10;;
51266;SDS011;37338;47.426;19.204;2023-08-06T11:52:20;0.30;;;0.20;;
51266;SDS011;37338;47.426;19.204;2023-08-06T11:55:02;2.22;;;0.20;;
51266;SDS011;37338;47.426;19.204;2023-08-06T11:57:29;1.73;;;0.20;;
51266;SDS011;37338;47.426;19.204;2023-08-06T12:00:06;0.35;;;0.15;;
51266;SDS011;37338;47.426;19.204;2023-08-06T12:02:34;0.52;;;0.20;;
51266;SDS011;37338;47.426;19.204;2023-08-06T12:05:09;0.68;;;0.20;;
51266;SDS011;37338;47.426;19.204;2023-08-06T12:07:38;0.30;;;0.10;;
51266;SDS011;37338;47.426;19.204;2023-08-06T12:10:05;0.20;;;0.10;;
51266;SDS011;37338;47.426;19.204;2023-08-06T12:12:31;0.30;;;0.10;;
51266;SDS011;37338;47.426;19.204;2023-08-06T12:14:56;0.17;;;0.10;;
51266;SDS011;37338;47.426;19.204;2023-08-06T12:17:22;2.90;;;0.20;;
51266;SDS011;37338;47.426;19.204;2023-08-06T12:19:49;2.90;;;0.30;;
51266;SDS011;37338;47.426;19.204;2023-08-06T12:22:14;0.25;;;0.20;;
51266;SDS011;37338;47.426;19.204;2023-08-06T12:24:40;6.40;;;0.43;;
51266;SDS011;37338;47.426;19.204;2023-08-06T12:27:09;0.77;;;0.20;;
51266;SDS011;37338;47.426;19.204;2023-08-06T12:29:35;2.30;;;0.10;;
51266;SDS011;37338;47.426;19.204;2023-08-06T12:32:02;1.65;;;0.20;;
51266;SDS011;37338;47.426;19.204;2023-08-06T12:34:28;0.63;;;0.28;;
51266;SDS011;37338;47.426;19.204;2023-08-06T12:36:53;0.32;;;0.20;;
51266;SDS011;37338;47.426;19.204;2023-08-06T12:39:19;0.40;;;0.20;;
51266;SDS011;37338;47.426;19.204;2023-08-06T12:41:44;0.20;;;0.20;;
51266;SDS011;37338;47.426;19.204;2023-08-06T12:44:11;0.10;;;0.10;;
51266;SDS011;37338;47.426;19.204;2023-08-06T12:46:37;1.73;;;0.20;;
51266;SDS011;37338;47.426;19.204;2023-08-06T12:49:02;1.35;;;0.20;;
51266;SDS011;37338;47.426;19.204;2023-08-06T12:51:28;0.80;;;0.20;;
51266;SDS011;37338;47.426;19.204;2023-08-06T12:53:53;0.30;;;0.15;;
51266;SDS011;37338;47.426;19.204;2023-08-06T12:56:18;0.25;;;0.20;;
51266;SDS011;37338;47.426;19.204;2023-08-06T12:58:44;0.20;;;0.13;;
51266;SDS011;37338;47.426;19.204;2023-08-06T13:01:09;0.30;;;0.30;;
51266;SDS011;37338;47.426;19.204;2023-08-06T13:03:34;0.10;;;0.10;;
51266;SDS011;37338;47.426;19.204;2023-08-06T13:06:00;0.30;;;0.20;;
51266;SDS011;37338;47.426;19.204;2023-08-06T13:08:25;0.85;;;0.20;;
51266;SDS011;37338;47.426;19.204;2023-08-06T13:10:51;4.00;;;0.25;;
51266;SDS011;37338;47.426;19.204;2023-08-06T13:13:16;0.30;;;0.17;;
51266;SDS011;37338;47.426;19.204;2023-08-06T13:15:42;0.30;;;0.30;;
51266;SDS011;37338;47.426;19.204;2023-08-06T13:18:07;1.48;;;0.10;;
51266;SDS011;37338;47.426;19.204;2023-08-06T13:20:32;0.90;;;0.30;;
51266;SDS011;37338;47.426;19.204;2023-08-06T13:22:58;0.20;;;0.10;;
51266;SDS011;37338;47.426;19.204;2023-08-06T13:25:24;1.02;;;0.30;;
51266;SDS011;37338;47.426;19.204;2023-08-06T13:27:50;3.78;;;0.75;;
51266;SDS011;37338;47.426;19.204;2023-08-06T13:30:15;1.00;;;0.30;;
51266;SDS011;37338;47.426;19.204;2023-08-06T13:32:43;0.68;;;0.20;;
51266;SDS011;37338;47.426;19.204;2023-08-06T13:35:08;2.53;;;1.08;;
51266;SDS011;37338;47.426;19.204;2023-08-06T13:37:34;0.75;;;0.20;;
51266;SDS011;37338;47.426;19.204;2023-08-06T13:39:59;2.15;;;0.40;;
51266;SDS011;37338;47.426;19.204;2023-08-06T13:42:24;1.40;;;0.40;;
51266;SDS011;37338;47.426;19.204;2023-08-06T13:44:50;1.30;;;0.17;;
51266;SDS011;37338;47.426;19.204;2023-08-06T13:47:15;0.50;;;0.40;;
51266;SDS011;37338;47.426;19.204;2023-08-06T13:49:41;2.40;;;0.55;;
51266;SDS011;37338;47.426;19.204;2023-08-06T13:52:06;0.50;;;0.40;;
51266;SDS011;37338;47.426;19.204;2023-08-06T13:54:31;0.60;;;0.40;;
51266;SDS011;37338;47.426;19.204;2023-08-06T13:56:57;0.98;;;0.52;;
51266;SDS011;37338;47.426;19.204;2023-08-06T13:59:22;2.88;;;0.57;;
51266;SDS011;37338;47.426;19.204;2023-08-06T14:01:49;0.70;;;0.50;;
51266;SDS011;37338;47.426;19.204;2023-08-06T14:04:15;0.63;;;0.50;;
51266;SDS011;37338;47.426;19.204;2023-08-06T14:06:40;4.05;;;0.40;;
51266;SDS011;37338;47.426;19.204;2023-08-06T14:09:05;0.50;;;0.50;;
51266;SDS011;37338;47.426;19.204;2023-08-06T14:11:31;1.60;;;0.47;;
51266;SDS011;37338;47.426;19.204;2023-08-06T14:13:56;2.15;;;0.90;;
51266;SDS011;37338;47.426;19.204;2023-08-06T14:16:21;0.65;;;0.43;;
51266;SDS011;37338;47.426;19.204;2023-08-06T14:18:47;0.88;;;0.47;;
51266;SDS011;37338;47.426;19.204;2023-08-06T14:21:13;1.15;;;0.68;;
51266;SDS011;37338;47.426;19.204;2023-08-06T14:23:39;1.20;;;0.60;;
51266;SDS011;37338;47.426;19.204;2023-08-06T14:26:06;3.13;;;0.60;;
51266;SDS011;37338;47.426;19.204;2023-08-06T14:28:31;0.32;;;0.32;;
51266;SDS011;37338;47.426;19.204;2023-08-06T14:30:57;1.92;;;0.60;;
51266;SDS011;37338;47.426;19.204;2023-08-06T14:33:22;2.15;;;0.45;;
51266;SDS011;37338;47.426;19.204;2023-08-06T14:35:48;0.68;;;0.50;;
51266;SDS011;37338;47.426;19.204;2023-08-06T14:38:13;0.50;;;0.50;;